ポンタ・デルガダ の空港の天気 - METARとTAF

ポンタ・デルガダ空港 ( LPPD / PDL ) - ポルトガル ポンタ・デルガダ (サンミゲル島)
飛行場実況気象(Metar)
観測時間05/25 10:00 +00 (05/25 10:00 UTC)
風向・風速西北西 3m/s
視程10km以上
天気現象
全天の4割程度の雲 雲底高度 610m
全天の4割程度の雲 雲底高度 1010m
気温17℃
湿度83%
気圧1020hPa
METARLPPD 251000Z 29006KT 260V320 9999 SCT020 SCT033 17/14 Q1020
過去の天気等 Google飛行場航空写真 Wunderground天気予報

過去48時間のMETAR

飛行場予報(TAF)
発表時間: 5/25 05:00 +00 (5/25 05:00 UTC)
予報対象時間: 25日6時 +00 ~ 26日6時 +00
風向・風速不定 3m/s
視程10km以上
全天の4割程度の雲 雲底高度 550m
25日9時 +00 ~ 25日11時 +00 に徐々に
風向・風速西 5m/s
26日0時 +00 ~ 26日2時 +00 に徐々に
風向・風速西南西 4m/s
TAF LPPD 250500Z 2506/2606 VRB05KT 9999 SCT018
BECMG 2509/2511 28010KT
BECMG 2600/2602 24008KT